sensor_id;sensor_type;location;lat;lon;timestamp;temperature;humidity
63899;HTU21D;50070;-32.946;-60.652;2023-05-18T00:00:28;23.28;61.42
63899;HTU21D;50070;-32.946;-60.652;2023-05-18T00:02:55;23.26;61.78
63899;HTU21D;50070;-32.946;-60.652;2023-05-18T00:05:23;23.20;62.15
63899;HTU21D;50070;-32.946;-60.652;2023-05-18T00:07:49;23.13;62.95
63899;HTU21D;50070;-32.946;-60.652;2023-05-18T00:10:15;23.05;63.02
63899;HTU21D;50070;-32.946;-60.652;2023-05-18T00:12:42;23.06;63.25
63899;HTU21D;50070;-32.946;-60.652;2023-05-18T00:15:09;23.17;62.70
63899;HTU21D;50070;-32.946;-60.652;2023-05-18T00:17:36;23.07;63.08
63899;HTU21D;50070;-32.946;-60.652;2023-05-18T00:20:03;22.93;63.50
63899;HTU21D;50070;-32.946;-60.652;2023-05-18T00:22:30;23.07;63.00
63899;HTU21D;50070;-32.946;-60.652;2023-05-18T00:24:57;22.84;64.19
63899;HTU21D;50070;-32.946;-60.652;2023-05-18T00:27:23;22.84;64.68
63899;HTU21D;50070;-32.946;-60.652;2023-05-18T00:29:50;22.85;64.80
63899;HTU21D;50070;-32.946;-60.652;2023-05-18T00:32:17;22.82;64.82
63899;HTU21D;50070;-32.946;-60.652;2023-05-18T00:34:44;22.73;65.63
63899;HTU21D;50070;-32.946;-60.652;2023-05-18T00:37:11;22.60;66.59
63899;HTU21D;50070;-32.946;-60.652;2023-05-18T00:39:37;22.61;66.48
63899;HTU21D;50070;-32.946;-60.652;2023-05-18T00:42:04;22.63;65.71
63899;HTU21D;50070;-32.946;-60.652;2023-05-18T00:44:31;22.47;66.83
63899;HTU21D;50070;-32.946;-60.652;2023-05-18T00:46:58;22.53;66.27
63899;HTU21D;50070;-32.946;-60.652;2023-05-18T00:49:25;22.62;65.64
63899;HTU21D;50070;-32.946;-60.652;2023-05-18T00:51:53;22.21;66.55
63899;HTU21D;50070;-32.946;-60.652;2023-05-18T00:54:20;22.05;67.17
63899;HTU21D;50070;-32.946;-60.652;2023-05-18T00:56:47;21.95;67.55
63899;HTU21D;50070;-32.946;-60.652;2023-05-18T00:59:13;22.18;66.80
63899;HTU21D;50070;-32.946;-60.652;2023-05-18T01:01:41;22.09;66.70
63899;HTU21D;50070;-32.946;-60.652;2023-05-18T01:04:12;22.08;66.68
63899;HTU21D;50070;-32.946;-60.652;2023-05-18T01:06:42;22.10;66.44
63899;HTU21D;50070;-32.946;-60.652;2023-05-18T01:09:11;22.24;66.08
63899;HTU21D;50070;-32.946;-60.652;2023-05-18T01:15:02;22.24;65.28
63899;HTU21D;50070;-32.946;-60.652;2023-05-18T01:18:00;22.21;64.33
63899;HTU21D;50070;-32.946;-60.652;2023-05-18T01:20:34;22.31;64.47
63899;HTU21D;50070;-32.946;-60.652;2023-05-18T01:26:21;22.14;64.96
63899;HTU21D;50070;-32.946;-60.652;2023-05-18T01:28:59;22.08;65.28
63899;HTU21D;50070;-32.946;-60.652;2023-05-18T01:31:27;21.96;65.67
63899;HTU21D;50070;-32.946;-60.652;2023-05-18T01:33:56;22.02;65.73
63899;HTU21D;50070;-32.946;-60.652;2023-05-18T01:36:23;22.11;65.74
63899;HTU21D;50070;-32.946;-60.652;2023-05-18T01:38:50;22.05;64.18
63899;HTU21D;50070;-32.946;-60.652;2023-05-18T01:41:22;22.19;64.74
63899;HTU21D;50070;-32.946;-60.652;2023-05-18T01:44:20;22.19;65.85
63899;HTU21D;50070;-32.946;-60.652;2023-05-18T01:49:37;22.55;61.57
63899;HTU21D;50070;-32.946;-60.652;2023-05-18T01:52:10;22.65;61.31
63899;HTU21D;50070;-32.946;-60.652;2023-05-18T01:54:42;22.35;62.84
63899;HTU21D;50070;-32.946;-60.652;2023-05-18T01:57:10;22.22;63.86
63899;HTU21D;50070;-32.946;-60.652;2023-05-18T01:59:37;21.97;65.14
63899;HTU21D;50070;-32.946;-60.652;2023-05-18T02:02:04;21.84;66.13
63899;HTU21D;50070;-32.946;-60.652;2023-05-18T02:04:31;21.35;68.91
63899;HTU21D;50070;-32.946;-60.652;2023-05-18T02:06:59;20.81;71.90
63899;HTU21D;50070;-32.946;-60.652;2023-05-18T02:09:26;20.73;72.48
63899;HTU21D;50070;-32.946;-60.652;2023-05-18T02:11:53;20.49;73.74
63899;HTU21D;50070;-32.946;-60.652;2023-05-18T02:14:20;20.12;75.50
63899;HTU21D;50070;-32.946;-60.652;2023-05-18T02:16:46;19.61;77.73
63899;HTU21D;50070;-32.946;-60.652;2023-05-18T02:19:19;19.77;77.31
63899;HTU21D;50070;-32.946;-60.652;2023-05-18T02:21:45;19.85;76.95
63899;HTU21D;50070;-32.946;-60.652;2023-05-18T02:24:13;19.47;78.52
63899;HTU21D;50070;-32.946;-60.652;2023-05-18T02:26:40;19.21;79.84
63899;HTU21D;50070;-32.946;-60.652;2023-05-18T02:29:07;19.32;79.22
63899;HTU21D;50070;-32.946;-60.652;2023-05-18T02:31:39;19.42;78.70
63899;HTU21D;50070;-32.946;-60.652;2023-05-18T02:34:06;19.11;80.25
63899;HTU21D;50070;-32.946;-60.652;2023-05-18T02:36:34;19.31;79.26
63899;HTU21D;50070;-32.946;-60.652;2023-05-18T02:39:08;18.98;80.51
63899;HTU21D;50070;-32.946;-60.652;2023-05-18T02:41:35;18.49;82.58
63899;HTU21D;50070;-32.946;-60.652;2023-05-18T02:44:03;18.61;81.94
63899;HTU21D;50070;-32.946;-60.652;2023-05-18T02:46:30;18.59;81.91
63899;HTU21D;50070;-32.946;-60.652;2023-05-18T02:48:57;18.33;83.07
63899;HTU21D;50070;-32.946;-60.652;2023-05-18T02:51:24;18.36;82.85
63899;HTU21D;50070;-32.946;-60.652;2023-05-18T02:53:51;18.52;81.97
63899;HTU21D;50070;-32.946;-60.652;2023-05-18T02:56:18;18.44;82.09
63899;HTU21D;50070;-32.946;-60.652;2023-05-18T02:58:45;18.28;82.49
63899;HTU21D;50070;-32.946;-60.652;2023-05-18T03:01:12;18.29;82.29
63899;HTU21D;50070;-32.946;-60.652;2023-05-18T03:03:39;18.15;83.00
63899;HTU21D;50070;-32.946;-60.652;2023-05-18T03:06:08;18.09;83.02
63899;HTU21D;50070;-32.946;-60.652;2023-05-18T03:08:35;18.20;82.13
63899;HTU21D;50070;-32.946;-60.652;2023-05-18T03:11:06;17.87;83.75
63899;HTU21D;50070;-32.946;-60.652;2023-05-18T03:13:33;17.73;84.77
63899;HTU21D;50070;-32.946;-60.652;2023-05-18T03:15:59;17.95;84.58
63899;HTU21D;50070;-32.946;-60.652;2023-05-18T03:18:26;17.67;85.66
63899;HTU21D;50070;-32.946;-60.652;2023-05-18T03:20:53;17.55;86.01
63899;HTU21D;50070;-32.946;-60.652;2023-05-18T03:23:21;17.40;86.52
63899;HTU21D;50070;-32.946;-60.652;2023-05-18T03:25:47;17.80;85.38
63899;HTU21D;50070;-32.946;-60.652;2023-05-18T03:28:19;17.51;85.93
63899;HTU21D;50070;-32.946;-60.652;2023-05-18T03:30:46;17.60;85.22
63899;HTU21D;50070;-32.946;-60.652;2023-05-18T03:33:13;17.60;85.11
63899;HTU21D;50070;-32.946;-60.652;2023-05-18T03:35:40;17.50;85.24
63899;HTU21D;50070;-32.946;-60.652;2023-05-18T03:38:06;17.51;85.21
63899;HTU21D;50070;-32.946;-60.652;2023-05-18T03:40:33;17.59;84.74
63899;HTU21D;50070;-32.946;-60.652;2023-05-18T03:43:00;17.50;85.09
63899;HTU21D;50070;-32.946;-60.652;2023-05-18T03:45:27;17.47;85.26
63899;HTU21D;50070;-32.946;-60.652;2023-05-18T03:47:54;17.78;83.93
63899;HTU21D;50070;-32.946;-60.652;2023-05-18T03:50:21;17.90;83.39
63899;HTU21D;50070;-32.946;-60.652;2023-05-18T03:52:47;17.89;83.41
63899;HTU21D;50070;-32.946;-60.652;2023-05-18T03:55:14;17.98;83.12
63899;HTU21D;50070;-32.946;-60.652;2023-05-18T03:57:42;18.05;82.65
63899;HTU21D;50070;-32.946;-60.652;2023-05-18T04:00:08;17.94;83.40
63899;HTU21D;50070;-32.946;-60.652;2023-05-18T04:02:38;18.11;82.54
63899;HTU21D;50070;-32.946;-60.652;2023-05-18T04:05:06;18.08;83.23
63899;HTU21D;50070;-32.946;-60.652;2023-05-18T04:07:34;18.05;83.41
63899;HTU21D;50070;-32.946;-60.652;2023-05-18T04:10:12;18.18;82.84
63899;HTU21D;50070;-32.946;-60.652;2023-05-18T04:12:40;18.23;82.86
63899;HTU21D;50070;-32.946;-60.652;2023-05-18T04:15:07;18.20;83.10
63899;HTU21D;50070;-32.946;-60.652;2023-05-18T04:17:34;18.25;83.55
63899;HTU21D;50070;-32.946;-60.652;2023-05-18T04:20:01;18.11;85.10
63899;HTU21D;50070;-32.946;-60.652;2023-05-18T04:22:39;18.10;86.23
63899;HTU21D;50070;-32.946;-60.652;2023-05-18T04:25:09;18.05;86.90
63899;HTU21D;50070;-32.946;-60.652;2023-05-18T04:27:40;18.11;87.70
63899;HTU21D;50070;-32.946;-60.652;2023-05-18T04:30:08;18.10;89.02
63899;HTU21D;50070;-32.946;-60.652;2023-05-18T04:32:37;18.19;89.02
63899;HTU21D;50070;-32.946;-60.652;2023-05-18T04:35:08;17.76;92.80
63899;HTU21D;50070;-32.946;-60.652;2023-05-18T04:37:35;17.82;91.93
63899;HTU21D;50070;-32.946;-60.652;2023-05-18T04:40:06;18.18;91.38
63899;HTU21D;50070;-32.946;-60.652;2023-05-18T04:42:33;18.30;90.47
63899;HTU21D;50070;-32.946;-60.652;2023-05-18T04:45:03;18.28;91.08
63899;HTU21D;50070;-32.946;-60.652;2023-05-18T04:47:30;18.37;90.99
63899;HTU21D;50070;-32.946;-60.652;2023-05-18T04:49:57;18.33;92.06
63899;HTU21D;50070;-32.946;-60.652;2023-05-18T04:52:24;18.40;90.70
63899;HTU21D;50070;-32.946;-60.652;2023-05-18T04:54:55;18.52;91.09
63899;HTU21D;50070;-32.946;-60.652;2023-05-18T04:57:22;18.65;90.69
63899;HTU21D;50070;-32.946;-60.652;2023-05-18T04:59:49;18.62;91.90
63899;HTU21D;50070;-32.946;-60.652;2023-05-18T05:02:18;18.35;93.03
63899;HTU21D;50070;-32.946;-60.652;2023-05-18T05:04:45;18.08;95.13
63899;HTU21D;50070;-32.946;-60.652;2023-05-18T05:07:11;18.46;92.42
63899;HTU21D;50070;-32.946;-60.652;2023-05-18T05:09:38;18.33;93.62
63899;HTU21D;50070;-32.946;-60.652;2023-05-18T05:12:05;18.06;95.73
63899;HTU21D;50070;-32.946;-60.652;2023-05-18T05:14:32;18.50;94.42
63899;HTU21D;50070;-32.946;-60.652;2023-05-18T05:16:59;18.57;93.13
63899;HTU21D;50070;-32.946;-60.652;2023-05-18T05:19:25;18.23;96.42
63899;HTU21D;50070;-32.946;-60.652;2023-05-18T05:21:52;18.22;95.74
63899;HTU21D;50070;-32.946;-60.652;2023-05-18T05:24:19;18.38;95.78
63899;HTU21D;50070;-32.946;-60.652;2023-05-18T05:26:46;18.57;97.42
63899;HTU21D;50070;-32.946;-60.652;2023-05-18T05:29:13;18.48;97.15
63899;HTU21D;50070;-32.946;-60.652;2023-05-18T05:31:39;18.34;95.54
63899;HTU21D;50070;-32.946;-60.652;2023-05-18T05:34:06;18.06;96.80
63899;HTU21D;50070;-32.946;-60.652;2023-05-18T05:36:33;18.11;98.45
63899;HTU21D;50070;-32.946;-60.652;2023-05-18T05:39:00;18.46;96.63
63899;HTU21D;50070;-32.946;-60.652;2023-05-18T05:41:27;18.33;96.43
63899;HTU21D;50070;-32.946;-60.652;2023-05-18T05:43:53;18.28;97.47
63899;HTU21D;50070;-32.946;-60.652;2023-05-18T05:46:20;18.40;98.74
63899;HTU21D;50070;-32.946;-60.652;2023-05-18T05:48:47;18.52;98.68
63899;HTU21D;50070;-32.946;-60.652;2023-05-18T05:51:14;18.38;99.07
63899;HTU21D;50070;-32.946;-60.652;2023-05-18T05:53:41;18.35;99.30
63899;HTU21D;50070;-32.946;-60.652;2023-05-18T05:56:09;18.38;99.99
63899;HTU21D;50070;-32.946;-60.652;2023-05-18T05:58:35;18.25;98.96
63899;HTU21D;50070;-32.946;-60.652;2023-05-18T06:01:02;18.07;99.93
63899;HTU21D;50070;-32.946;-60.652;2023-05-18T06:03:29;17.95;100.25
63899;HTU21D;50070;-32.946;-60.652;2023-05-18T06:05:56;18.42;99.29
63899;HTU21D;50070;-32.946;-60.652;2023-05-18T06:08:23;18.11;99.50
63899;HTU21D;50070;-32.946;-60.652;2023-05-18T06:10:50;18.09;100.26
63899;HTU21D;50070;-32.946;-60.652;2023-05-18T06:13:17;18.14;100.95
63899;HTU21D;50070;-32.946;-60.652;2023-05-18T06:15:43;18.17;100.72
63899;HTU21D;50070;-32.946;-60.652;2023-05-18T06:18:10;17.99;100.73
63899;HTU21D;50070;-32.946;-60.652;2023-05-18T06:20:38;18.27;100.76
63899;HTU21D;50070;-32.946;-60.652;2023-05-18T06:23:04;18.29;100.66
63899;HTU21D;50070;-32.946;-60.652;2023-05-18T06:25:31;18.17;100.73
63899;HTU21D;50070;-32.946;-60.652;2023-05-18T06:27:58;18.10;101.60
63899;HTU21D;50070;-32.946;-60.652;2023-05-18T06:30:25;18.34;100.83
63899;HTU21D;50070;-32.946;-60.652;2023-05-18T06:32:51;18.66;98.74
63899;HTU21D;50070;-32.946;-60.652;2023-05-18T06:35:18;18.51;98.67
63899;HTU21D;50070;-32.946;-60.652;2023-05-18T06:37:45;18.73;97.74
63899;HTU21D;50070;-32.946;-60.652;2023-05-18T06:40:12;18.15;101.96
63899;HTU21D;50070;-32.946;-60.652;2023-05-18T06:42:38;18.07;102.83
63899;HTU21D;50070;-32.946;-60.652;2023-05-18T06:45:06;18.53;100.53
63899;HTU21D;50070;-32.946;-60.652;2023-05-18T06:47:32;18.37;100.54
63899;HTU21D;50070;-32.946;-60.652;2023-05-18T06:49:59;18.55;99.96
63899;HTU21D;50070;-32.946;-60.652;2023-05-18T06:52:26;18.70;100.61
63899;HTU21D;50070;-32.946;-60.652;2023-05-18T06:54:53;18.82;99.23
63899;HTU21D;50070;-32.946;-60.652;2023-05-18T06:57:19;18.80;98.94
63899;HTU21D;50070;-32.946;-60.652;2023-05-18T06:59:46;18.51;100.80
63899;HTU21D;50070;-32.946;-60.652;2023-05-18T07:02:19;18.26;103.25
63899;HTU21D;50070;-32.946;-60.652;2023-05-18T07:04:49;18.26;103.52
63899;HTU21D;50070;-32.946;-60.652;2023-05-18T07:07:16;18.06;102.48
63899;HTU21D;50070;-32.946;-60.652;2023-05-18T07:09:42;17.70;100.10
63899;HTU21D;50070;-32.946;-60.652;2023-05-18T07:12:11;17.45;100.73
63899;HTU21D;50070;-32.946;-60.652;2023-05-18T07:14:37;17.17;100.28
63899;HTU21D;50070;-32.946;-60.652;2023-05-18T07:17:05;16.98;100.48
63899;HTU21D;50070;-32.946;-60.652;2023-05-18T07:19:32;16.92;100.77
63899;HTU21D;50070;-32.946;-60.652;2023-05-18T07:22:00;16.89;100.80
63899;HTU21D;50070;-32.946;-60.652;2023-05-18T07:24:27;16.93;100.37
63899;HTU21D;50070;-32.946;-60.652;2023-05-18T07:26:53;16.76;101.10
63899;HTU21D;50070;-32.946;-60.652;2023-05-18T07:29:20;16.62;101.36
63899;HTU21D;50070;-32.946;-60.652;2023-05-18T07:31:47;16.72;100.36
63899;HTU21D;50070;-32.946;-60.652;2023-05-18T07:34:14;16.67;100.67
63899;HTU21D;50070;-32.946;-60.652;2023-05-18T07:36:40;16.49;101.02
63899;HTU21D;50070;-32.946;-60.652;2023-05-18T07:39:07;16.46;101.16
63899;HTU21D;50070;-32.946;-60.652;2023-05-18T07:41:34;16.63;101.44
63899;HTU21D;50070;-32.946;-60.652;2023-05-18T07:44:01;16.56;99.89
63899;HTU21D;50070;-32.946;-60.652;2023-05-18T07:46:28;16.67;99.25
63899;HTU21D;50070;-32.946;-60.652;2023-05-18T07:48:54;16.61;99.19
63899;HTU21D;50070;-32.946;-60.652;2023-05-18T07:51:21;16.63;98.61
63899;HTU21D;50070;-32.946;-60.652;2023-05-18T07:53:48;16.66;98.34
63899;HTU21D;50070;-32.946;-60.652;2023-05-18T07:56:15;16.47;98.22
63899;HTU21D;50070;-32.946;-60.652;2023-05-18T07:58:41;16.51;97.66
63899;HTU21D;50070;-32.946;-60.652;2023-05-18T08:01:09;16.63;97.60
63899;HTU21D;50070;-32.946;-60.652;2023-05-18T08:03:36;16.34;98.84
63899;HTU21D;50070;-32.946;-60.652;2023-05-18T08:06:03;16.29;98.57
63899;HTU21D;50070;-32.946;-60.652;2023-05-18T08:08:29;16.32;98.61
63899;HTU21D;50070;-32.946;-60.652;2023-05-18T08:10:57;16.47;97.03
63899;HTU21D;50070;-32.946;-60.652;2023-05-18T08:13:24;16.01;98.29
63899;HTU21D;50070;-32.946;-60.652;2023-05-18T08:15:51;16.19;97.61
63899;HTU21D;50070;-32.946;-60.652;2023-05-18T08:18:18;16.01;98.23
63899;HTU21D;50070;-32.946;-60.652;2023-05-18T08:20:45;15.96;98.02
63899;HTU21D;50070;-32.946;-60.652;2023-05-18T08:23:12;16.17;97.30
63899;HTU21D;50070;-32.946;-60.652;2023-05-18T08:25:39;16.17;96.06
63899;HTU21D;50070;-32.946;-60.652;2023-05-18T08:28:05;16.06;95.80
63899;HTU21D;50070;-32.946;-60.652;2023-05-18T08:30:32;16.13;95.38
63899;HTU21D;50070;-32.946;-60.652;2023-05-18T08:32:59;15.84;95.76
63899;HTU21D;50070;-32.946;-60.652;2023-05-18T08:35:26;15.60;97.36
63899;HTU21D;50070;-32.946;-60.652;2023-05-18T08:37:53;15.71;96.42
63899;HTU21D;50070;-32.946;-60.652;2023-05-18T08:40:20;15.63;96.58
63899;HTU21D;50070;-32.946;-60.652;2023-05-18T08:46:03;15.76;95.55
63899;HTU21D;50070;-32.946;-60.652;2023-05-18T08:48:21;15.47;95.84
63899;HTU21D;50070;-32.946;-60.652;2023-05-18T08:50:50;15.40;96.39
63899;HTU21D;50070;-32.946;-60.652;2023-05-18T08:53:20;15.33;97.26
63899;HTU21D;50070;-32.946;-60.652;2023-05-18T08:55:52;15.57;95.64
63899;HTU21D;50070;-32.946;-60.652;2023-05-18T08:58:20;15.57;96.26
63899;HTU21D;50070;-32.946;-60.652;2023-05-18T09:00:53;15.33;95.93
63899;HTU21D;50070;-32.946;-60.652;2023-05-18T09:03:21;15.18;96.24
63899;HTU21D;50070;-32.946;-60.652;2023-05-18T09:05:48;15.26;95.92
63899;HTU21D;50070;-32.946;-60.652;2023-05-18T09:08:17;15.25;95.96
63899;HTU21D;50070;-32.946;-60.652;2023-05-18T09:10:47;15.23;95.93
63899;HTU21D;50070;-32.946;-60.652;2023-05-18T09:13:14;15.14;95.72
63899;HTU21D;50070;-32.946;-60.652;2023-05-18T09:15:45;15.16;94.91
63899;HTU21D;50070;-32.946;-60.652;2023-05-18T09:18:12;15.07;95.61
63899;HTU21D;50070;-32.946;-60.652;2023-05-18T09:20:39;14.98;95.64
63899;HTU21D;50070;-32.946;-60.652;2023-05-18T09:23:06;14.89;96.01
63899;HTU21D;50070;-32.946;-60.652;2023-05-18T09:25:35;15.00;96.04
63899;HTU21D;50070;-32.946;-60.652;2023-05-18T09:28:06;15.04;95.43
63899;HTU21D;50070;-32.946;-60.652;2023-05-18T09:30:42;14.94;95.75
63899;HTU21D;50070;-32.946;-60.652;2023-05-18T09:33:18;14.89;96.06
63899;HTU21D;50070;-32.946;-60.652;2023-05-18T09:35:51;15.09;94.59
63899;HTU21D;50070;-32.946;-60.652;2023-05-18T09:38:20;15.06;94.69
63899;HTU21D;50070;-32.946;-60.652;2023-05-18T09:40:48;14.91;94.87
63899;HTU21D;50070;-32.946;-60.652;2023-05-18T09:43:19;14.89;94.74
63899;HTU21D;50070;-32.946;-60.652;2023-05-18T09:45:48;15.00;94.91
63899;HTU21D;50070;-32.946;-60.652;2023-05-18T09:48:15;15.22;93.74
63899;HTU21D;50070;-32.946;-60.652;2023-05-18T09:50:44;15.31;94.65
63899;HTU21D;50070;-32.946;-60.652;2023-05-18T09:53:12;15.07;93.63
63899;HTU21D;50070;-32.946;-60.652;2023-05-18T09:55:47;15.01;93.40
63899;HTU21D;50070;-32.946;-60.652;2023-05-18T09:58:14;15.12;93.36
63899;HTU21D;50070;-32.946;-60.652;2023-05-18T10:00:43;14.97;93.12
63899;HTU21D;50070;-32.946;-60.652;2023-05-18T10:05:45;15.11;93.14
63899;HTU21D;50070;-32.946;-60.652;2023-05-18T10:08:13;15.00;92.85
63899;HTU21D;50070;-32.946;-60.652;2023-05-18T10:10:46;14.98;92.45
63899;HTU21D;50070;-32.946;-60.652;2023-05-18T10:13:14;15.16;91.81
63899;HTU21D;50070;-32.946;-60.652;2023-05-18T10:15:52;15.39;91.24
63899;HTU21D;50070;-32.946;-60.652;2023-05-18T10:18:26;15.00;91.43
63899;HTU21D;50070;-32.946;-60.652;2023-05-18T10:20:57;15.21;90.48
63899;HTU21D;50070;-32.946;-60.652;2023-05-18T10:23:29;15.29;91.67
63899;HTU21D;50070;-32.946;-60.652;2023-05-18T10:25:56;15.33;90.98
63899;HTU21D;50070;-32.946;-60.652;2023-05-18T10:28:32;14.99;91.09
63899;HTU21D;50070;-32.946;-60.652;2023-05-18T10:30:59;15.30;90.74
63899;HTU21D;50070;-32.946;-60.652;2023-05-18T10:33:27;15.25;89.42
63899;HTU21D;50070;-32.946;-60.652;2023-05-18T10:35:54;15.53;89.22
63899;HTU21D;50070;-32.946;-60.652;2023-05-18T10:38:23;15.33;88.60
63899;HTU21D;50070;-32.946;-60.652;2023-05-18T10:40:52;15.00;89.97
63899;HTU21D;50070;-32.946;-60.652;2023-05-18T10:43:21;14.82;91.16
63899;HTU21D;50070;-32.946;-60.652;2023-05-18T10:45:59;14.97;90.12
63899;HTU21D;50070;-32.946;-60.652;2023-05-18T10:48:28;15.07;89.81
63899;HTU21D;50070;-32.946;-60.652;2023-05-18T10:50:56;14.94;91.08
63899;HTU21D;50070;-32.946;-60.652;2023-05-18T10:53:27;15.33;88.80
63899;HTU21D;50070;-32.946;-60.652;2023-05-18T10:55:57;15.33;88.55
63899;HTU21D;50070;-32.946;-60.652;2023-05-18T10:58:29;15.17;89.21
63899;HTU21D;50070;-32.946;-60.652;2023-05-18T11:01:01;15.24;88.50
63899;HTU21D;50070;-32.946;-60.652;2023-05-18T11:03:30;15.19;88.42
63899;HTU21D;50070;-32.946;-60.652;2023-05-18T11:06:11;15.16;88.58
63899;HTU21D;50070;-32.946;-60.652;2023-05-18T11:08:46;15.25;88.46
63899;HTU21D;50070;-32.946;-60.652;2023-05-18T11:11:14;15.41;88.02
63899;HTU21D;50070;-32.946;-60.652;2023-05-18T11:13:47;15.08;88.08
63899;HTU21D;50070;-32.946;-60.652;2023-05-18T11:16:18;14.95;89.76
63899;HTU21D;50070;-32.946;-60.652;2023-05-18T11:18:50;15.15;89.22
63899;HTU21D;50070;-32.946;-60.652;2023-05-18T11:26:39;15.06;89.47
63899;HTU21D;50070;-32.946;-60.652;2023-05-18T11:29:17;15.15;88.92
63899;HTU21D;50070;-32.946;-60.652;2023-05-18T11:31:46;15.14;89.47
63899;HTU21D;50070;-32.946;-60.652;2023-05-18T11:34:44;14.77;89.61
63899;HTU21D;50070;-32.946;-60.652;2023-05-18T11:37:15;14.56;90.99
63899;HTU21D;50070;-32.946;-60.652;2023-05-18T11:39:53;14.83;89.83
63899;HTU21D;50070;-32.946;-60.652;2023-05-18T11:42:20;15.02;88.76
63899;HTU21D;50070;-32.946;-60.652;2023-05-18T11:44:53;14.73;89.56
63899;HTU21D;50070;-32.946;-60.652;2023-05-18T11:47:22;14.94;89.92
63899;HTU21D;50070;-32.946;-60.652;2023-05-18T11:49:58;15.23;88.32
63899;HTU21D;50070;-32.946;-60.652;2023-05-18T11:52:26;15.00;88.18
63899;HTU21D;50070;-32.946;-60.652;2023-05-18T11:54:59;15.09;88.09
63899;HTU21D;50070;-32.946;-60.652;2023-05-18T12:00:05;14.99;89.21
63899;HTU21D;50070;-32.946;-60.652;2023-05-18T12:02:37;14.99;88.78
63899;HTU21D;50070;-32.946;-60.652;2023-05-18T12:05:07;15.03;89.34
63899;HTU21D;50070;-32.946;-60.652;2023-05-18T12:07:35;15.21;88.12
63899;HTU21D;50070;-32.946;-60.652;2023-05-18T12:10:06;15.26;87.85
63899;HTU21D;50070;-32.946;-60.652;2023-05-18T12:12:34;14.89;88.02
63899;HTU21D;50070;-32.946;-60.652;2023-05-18T12:15:03;14.88;88.86
63899;HTU21D;50070;-32.946;-60.652;2023-05-18T12:17:41;14.94;88.78
63899;HTU21D;50070;-32.946;-60.652;2023-05-18T12:22:43;15.02;87.46
63899;HTU21D;50070;-32.946;-60.652;2023-05-18T12:25:11;15.09;87.57
63899;HTU21D;50070;-32.946;-60.652;2023-05-18T12:27:45;15.16;88.11
63899;HTU21D;50070;-32.946;-60.652;2023-05-18T12:32:52;15.13;87.11
63899;HTU21D;50070;-32.946;-60.652;2023-05-18T12:35:23;14.99;87.33
63899;HTU21D;50070;-32.946;-60.652;2023-05-18T12:37:50;15.32;86.64
63899;HTU21D;50070;-32.946;-60.652;2023-05-18T12:40:18;15.23;87.52
63899;HTU21D;50070;-32.946;-60.652;2023-05-18T12:42:59;15.30;86.31
63899;HTU21D;50070;-32.946;-60.652;2023-05-18T12:45:28;15.39;85.97
63899;HTU21D;50070;-32.946;-60.652;2023-05-18T12:48:03;15.55;85.27
63899;HTU21D;50070;-32.946;-60.652;2023-05-18T12:50:30;15.58;84.05
63899;HTU21D;50070;-32.946;-60.652;2023-05-18T12:52:57;15.85;84.16
63899;HTU21D;50070;-32.946;-60.652;2023-05-18T12:55:24;15.44;84.11
63899;HTU21D;50070;-32.946;-60.652;2023-05-18T12:58:14;15.34;84.74
63899;HTU21D;50070;-32.946;-60.652;2023-05-18T13:00:44;15.29;85.12
63899;HTU21D;50070;-32.946;-60.652;2023-05-18T13:03:13;15.33;85.48
63899;HTU21D;50070;-32.946;-60.652;2023-05-18T13:05:41;15.31;85.21
63899;HTU21D;50070;-32.946;-60.652;2023-05-18T13:08:19;15.31;85.54
63899;HTU21D;50070;-32.946;-60.652;2023-05-18T13:10:49;15.26;85.31
63899;HTU21D;50070;-32.946;-60.652;2023-05-18T13:13:18;15.38;85.09
63899;HTU21D;50070;-32.946;-60.652;2023-05-18T13:15:45;15.45;84.96
63899;HTU21D;50070;-32.946;-60.652;2023-05-18T13:18:11;15.59;82.96
63899;HTU21D;50070;-32.946;-60.652;2023-05-18T13:20:53;15.68;82.41
63899;HTU21D;50070;-32.946;-60.652;2023-05-18T13:23:27;15.63;81.87
63899;HTU21D;50070;-32.946;-60.652;2023-05-18T13:25:54;15.54;83.05
63899;HTU21D;50070;-32.946;-60.652;2023-05-18T13:28:21;15.85;82.31
63899;HTU21D;50070;-32.946;-60.652;2023-05-18T13:30:49;15.93;82.12
63899;HTU21D;50070;-32.946;-60.652;2023-05-18T13:33:16;15.89;80.74
63899;HTU21D;50070;-32.946;-60.652;2023-05-18T13:35:45;16.00;80.61
63899;HTU21D;50070;-32.946;-60.652;2023-05-18T13:38:12;16.04;80.14
63899;HTU21D;50070;-32.946;-60.652;2023-05-18T13:40:40;16.05;78.93
63899;HTU21D;50070;-32.946;-60.652;2023-05-18T13:43:07;16.31;78.14
63899;HTU21D;50070;-32.946;-60.652;2023-05-18T13:45:34;16.46;77.69
63899;HTU21D;50070;-32.946;-60.652;2023-05-18T13:48:02;16.41;77.68
63899;HTU21D;50070;-32.946;-60.652;2023-05-18T13:50:32;16.50;78.21
63899;HTU21D;50070;-32.946;-60.652;2023-05-18T13:52:59;16.56;77.05
63899;HTU21D;50070;-32.946;-60.652;2023-05-18T13:55:26;16.86;76.53
63899;HTU21D;50070;-32.946;-60.652;2023-05-18T13:57:53;16.81;75.26
63899;HTU21D;50070;-32.946;-60.652;2023-05-18T14:00:20;16.70;75.89
63899;HTU21D;50070;-32.946;-60.652;2023-05-18T14:02:47;16.82;74.76
63899;HTU21D;50070;-32.946;-60.652;2023-05-18T14:05:14;16.62;74.25
63899;HTU21D;50070;-32.946;-60.652;2023-05-18T14:07:42;16.57;74.73
63899;HTU21D;50070;-32.946;-60.652;2023-05-18T14:10:10;16.69;74.75
63899;HTU21D;50070;-32.946;-60.652;2023-05-18T14:12:37;16.86;73.93
63899;HTU21D;50070;-32.946;-60.652;2023-05-18T14:15:05;17.13;73.30
63899;HTU21D;50070;-32.946;-60.652;2023-05-18T14:17:31;17.22;72.35
63899;HTU21D;50070;-32.946;-60.652;2023-05-18T14:19:59;17.30;72.08
63899;HTU21D;50070;-32.946;-60.652;2023-05-18T14:22:26;17.10;70.77
63899;HTU21D;50070;-32.946;-60.652;2023-05-18T14:24:53;17.32;69.69
63899;HTU21D;50070;-32.946;-60.652;2023-05-18T14:27:23;17.61;69.01
63899;HTU21D;50070;-32.946;-60.652;2023-05-18T14:29:50;17.59;69.10
63899;HTU21D;50070;-32.946;-60.652;2023-05-18T14:32:17;17.52;67.87
63899;HTU21D;50070;-32.946;-60.652;2023-05-18T14:34:47;17.22;68.20
63899;HTU21D;50070;-32.946;-60.652;2023-05-18T14:37:20;17.33;67.20
63899;HTU21D;50070;-32.946;-60.652;2023-05-18T14:39:47;17.48;66.76
63899;HTU21D;50070;-32.946;-60.652;2023-05-18T14:42:13;17.62;65.71
63899;HTU21D;50070;-32.946;-60.652;2023-05-18T14:44:40;17.33;65.89
63899;HTU21D;50070;-32.946;-60.652;2023-05-18T14:47:07;17.38;65.25
63899;HTU21D;50070;-32.946;-60.652;2023-05-18T14:49:35;17.31;63.37
63899;HTU21D;50070;-32.946;-60.652;2023-05-18T14:52:01;17.47;62.70
63899;HTU21D;50070;-32.946;-60.652;2023-05-18T14:54:28;17.94;62.16
63899;HTU21D;50070;-32.946;-60.652;2023-05-18T14:56:55;17.95;62.28
63899;HTU21D;50070;-32.946;-60.652;2023-05-18T14:59:22;17.96;62.91
63899;HTU21D;50070;-32.946;-60.652;2023-05-18T15:01:48;17.94;62.99
63899;HTU21D;50070;-32.946;-60.652;2023-05-18T15:04:15;18.05;61.89
63899;HTU21D;50070;-32.946;-60.652;2023-05-18T15:06:42;18.04;60.83
63899;HTU21D;50070;-32.946;-60.652;2023-05-18T15:09:09;18.04;60.15